Time;durP1;ratioP1;P1;durP2;ratioP2;P2;SDS_P1;SDS_P2;PMS_P1;PMS_P2;Temp;Humidity;BMP_temperature;BMP_pressure;BME280_temperature;BME280_humidity;BME280_pressure;Samples;Min_cycle;Max_cycle;Signal;HPM_P1;HPM_P2
2022/11/29 00:01:20;;;;;;;12.32;5.72;;;;;;;8.53;100.00;101437.88;5002608;28;20036;-82
2022/11/29 00:03:46;;;;;;;14.63;6.45;;;;;;;8.49;100.00;101447.81;5020131;28;20017;-81
2022/11/29 00:06:23;;;;;;;11.68;5.05;;;;;;;8.56;100.00;101441.13;5002930;28;20539;-82
2022/11/29 00:08:49;;;;;;;11.57;5.40;;;;;;;8.54;100.00;101445.66;5019197;28;20029;-76
2022/11/29 00:14:17;;;;;;;11.35;5.10;;;;;;;8.40;100.00;101428.31;5086252;22;20424;-74
2022/11/29 00:16:44;;;;;;;7.45;5.15;;;;;;;8.53;100.00;101445.78;5075374;28;20123;-77
2022/11/29 00:19:10;;;;;;;10.02;5.28;;;;;;;8.39;100.00;101425.81;5081750;28;20039;-74
2022/11/29 00:21:36;;;;;;;11.93;5.75;;;;;;;8.37;100.00;101432.97;5073940;28;20074;-74
2022/11/29 00:24:02;;;;;;;12.05;4.95;;;;;;;8.50;100.00;101454.75;5073702;28;20535;-74
2022/11/29 00:26:27;;;;;;;7.43;4.20;;;;;;;8.55;100.00;101451.75;5075135;28;20024;-73
2022/11/29 00:28:52;;;;;;;7.65;4.35;;;;;;;8.50;100.00;101449.50;5074120;28;20063;-75
2022/11/29 00:31:23;;;;;;;11.45;5.43;;;;;;;8.55;100.00;101446.50;5073332;28;20032;-73
2022/11/29 00:33:49;;;;;;;8.15;5.00;;;;;;;8.55;100.00;101444.69;5075097;28;20040;-74
2022/11/29 00:36:15;;;;;;;7.82;4.15;;;;;;;8.58;100.00;101451.50;5075575;28;20032;-75
2022/11/29 00:38:40;;;;;;;11.52;6.72;;;;;;;8.51;100.00;101440.63;5074829;28;20108;-75
2022/11/29 00:41:07;;;;;;;12.73;5.05;;;;;;;8.48;100.00;101440.06;5074423;28;20032;-74
2022/11/29 00:43:33;;;;;;;12.60;4.68;;;;;;;8.54;100.00;101456.19;5073538;28;20051;-74
2022/11/29 00:45:58;;;;;;;10.55;5.57;;;;;;;8.48;100.00;101454.03;5075158;28;20036;-74
2022/11/29 00:48:24;;;;;;;17.33;6.93;;;;;;;8.52;100.00;101460.72;5073789;28;20027;-74
2022/11/29 00:50:49;;;;;;;10.40;6.43;;;;;;;8.48;100.00;101451.41;5074162;28;20032;-73
2022/11/29 00:53:15;;;;;;;9.32;4.57;;;;;;;8.41;100.00;101435.28;5074411;28;20024;-74
2022/11/29 00:55:40;;;;;;;9.93;3.90;;;;;;;8.53;100.00;101462.41;5073974;28;20390;-74
2022/11/29 00:58:06;;;;;;;8.30;3.78;;;;;;;8.55;100.00;101452.59;5057923;28;20025;-74
2022/11/29 01:00:31;;;;;;;7.85;4.38;;;;;;;8.55;100.00;101452.59;5074533;28;20039;-73
2022/11/29 01:02:57;;;;;;;9.32;4.88;;;;;;;8.52;100.00;101437.06;5074200;28;20024;-74
2022/11/29 01:05:22;;;;;;;11.90;3.75;;;;;;;8.58;100.00;101448.88;5072824;28;20029;-74
2022/11/29 01:07:48;;;;;;;12.95;5.00;;;;;;;8.51;100.00;101435.38;5073177;28;20055;-74
2022/11/29 01:10:13;;;;;;;11.35;4.18;;;;;;;8.59;100.00;101445.31;5057545;28;21560;-74
2022/11/29 01:12:39;;;;;;;13.40;5.18;;;;;;;8.59;100.00;101447.94;5073715;28;20032;-76
2022/11/29 01:15:06;;;;;;;13.02;4.40;;;;;;;8.48;100.00;101430.38;5074223;28;20538;-74
2022/11/29 01:17:36;;;;;;;11.30;5.45;;;;;;;8.58;100.00;101449.72;5074738;28;20036;-74
2022/11/29 01:20:03;;;;;;;18.42;7.03;;;;;;;8.51;100.00;101443.25;5079347;28;20021;-74
2022/11/29 01:22:29;;;;;;;12.00;4.80;;;;;;;8.48;100.00;101432.16;5080100;28;20131;-74
2022/11/29 01:24:54;;;;;;;17.52;5.68;;;;;;;8.44;100.00;101439.44;5046470;28;20543;-74
2022/11/29 01:27:19;;;;;;;8.15;4.53;;;;;;;8.38;100.00;101432.00;5043766;28;20033;-75
2022/11/29 01:29:45;;;;;;;8.25;4.07;;;;;;;8.42;100.00;101446.63;5059194;28;20033;-74
2022/11/29 01:32:11;;;;;;;9.88;4.95;;;;;;;8.41;100.00;101458.13;5049722;28;20039;-74
2022/11/29 01:34:37;;;;;;;9.70;4.63;;;;;;;8.46;100.00;101463.84;5044888;28;20040;-74
2022/11/29 01:37:03;;;;;;;6.68;3.97;;;;;;;8.46;100.00;101463.84;5059054;28;20042;-74
2022/11/29 01:39:28;;;;;;;12.77;5.28;;;;;;;8.46;100.00;101463.84;5060571;28;20035;-75
2022/11/29 01:41:53;;;;;;;10.43;4.95;;;;;;;8.36;100.00;101452.34;5060765;28;20060;-73
2022/11/29 01:44:19;;;;;;;6.88;3.65;;;;;;;8.46;100.00;101463.84;5026124;28;20036;-74
2022/11/29 01:46:46;;;;;;;13.35;5.00;;;;;;;8.48;100.00;101467.19;5060693;28;20091;-74
2022/11/29 01:49:14;;;;;;;12.75;5.55;;;;;;;8.45;100.00;101470.09;5058351;28;20032;-73
2022/11/29 01:51:43;;;;;;;13.77;5.18;;;;;;;8.33;100.00;101456.03;5058571;28;20068;-74
2022/11/29 01:54:11;;;;;;;11.10;5.20;;;;;;;8.44;100.00;101465.75;5058528;28;20029;-75
2022/11/29 01:56:37;;;;;;;10.48;3.88;;;;;;;8.37;100.00;101459.28;5060253;28;20037;-74
2022/11/29 01:59:07;;;;;;;6.60;4.82;;;;;;;8.39;100.00;101462.63;5067209;28;20491;-74
2022/11/29 02:01:34;;;;;;;11.23;5.77;;;;;;;8.16;100.00;101449.47;5058742;28;20071;-73
2022/11/29 02:04:00;;;;;;;8.35;5.00;;;;;;;8.26;100.00;101469.81;5059191;28;20119;-74
2022/11/29 02:06:28;;;;;;;11.10;5.13;;;;;;;8.07;100.00;101452.00;5060809;28;20104;-74
2022/11/29 02:08:53;;;;;;;10.38;5.68;;;;;;;8.04;100.00;101458.31;5065555;28;20035;-75
2022/11/29 02:11:50;;;;;;;10.50;5.30;;;;;;;7.77;100.00;101456.88;5043145;28;20044;-73
2022/11/29 02:14:24;;;;;;;14.93;6.40;;;;;;;7.87;100.00;101472.75;5056845;28;20044;-74
2022/11/29 02:17:05;;;;;;;6.65;4.13;;;;;;;7.72;100.00;101466.03;5060258;28;20043;-74
2022/11/29 02:19:41;;;;;;;9.52;4.25;;;;;;;7.62;100.00;101477.25;5059073;28;20037;-73
2022/11/29 02:22:14;;;;;;;11.32;5.03;;;;;;;7.58;100.00;101475.81;5059203;28;20057;-73
2022/11/29 02:25:24;;;;;;;10.65;5.30;;;;;;;7.46;100.00;101474.09;5057888;28;20391;-73
2022/11/29 02:27:56;;;;;;;6.87;4.07;;;;;;;7.58;100.00;101482.84;5028161;28;20068;-74
2022/11/29 02:30:52;;;;;;;6.03;3.17;;;;;;;7.54;100.00;101492.75;5038769;28;20452;-77
2022/11/29 02:33:41;;;;;;;9.63;4.28;;;;;;;7.61;100.00;101503.63;5036277;28;20133;-73
2022/11/29 02:36:34;;;;;;;12.35;4.95;;;;;;;7.68;100.00;101507.47;5027231;28;20029;-74
2022/11/29 02:39:06;;;;;;;6.55;4.07;;;;;;;7.73;100.00;101500.09;5038191;28;20040;-73
2022/11/29 02:41:53;;;;;;;9.45;5.55;;;;;;;7.83;100.00;101505.47;5036955;28;20365;-74
2022/11/29 02:44:36;;;;;;;9.98;5.05;;;;;;;7.91;100.00;101518.06;5036655;28;20534;-74
2022/11/29 02:47:20;;;;;;;6.85;4.18;;;;;;;7.94;100.00;101520.44;5036866;28;20048;-74
2022/11/29 02:50:11;;;;;;;6.07;3.97;;;;;;;7.87;100.00;101521.84;5037694;28;20139;-75
2022/11/29 02:52:51;;;;;;;10.25;5.20;;;;;;;7.89;100.00;101517.31;5037603;28;20033;-74
2022/11/29 02:55:42;;;;;;;9.95;5.15;;;;;;;7.90;100.00;101505.84;5037644;28;20033;-74
2022/11/29 02:58:59;;;;;;;6.30;4.30;;;;;;;8.01;100.00;101532.16;5035876;28;20045;-76
2022/11/29 03:01:27;;;;;;;13.48;6.20;;;;;;;7.98;100.00;101527.13;5025964;28;20040;-74
2022/11/29 03:04:01;;;;;;;9.98;5.57;;;;;;;8.00;100.00;101533.13;5050529;28;20037;-75
2022/11/29 03:06:37;;;;;;;10.07;5.68;;;;;;;7.96;100.00;101527.25;5058204;28;20107;-74
2022/11/29 03:09:16;;;;;;;16.42;5.30;;;;;;;8.00;100.00;101517.34;5055884;28;20495;-73
2022/11/29 03:11:58;;;;;;;8.27;4.10;;;;;;;7.98;100.00;101512.19;5059080;28;20082;-74
2022/11/29 03:14:40;;;;;;;10.88;6.10;;;;;;;8.00;100.00;101514.72;5057386;28;20049;-74
2022/11/29 03:17:16;;;;;;;11.45;5.03;;;;;;;7.98;100.00;101517.44;5058383;28;20035;-74
2022/11/29 03:20:05;;;;;;;12.55;5.07;;;;;;;8.12;100.00;101529.56;5058595;28;20029;-73
2022/11/29 03:22:48;;;;;;;8.02;5.03;;;;;;;8.12;100.00;101529.56;5058958;28;20058;-73
2022/11/29 03:25:16;;;;;;;13.60;5.65;;;;;;;8.08;100.00;101528.13;5059670;28;20028;-75
2022/11/29 03:28:05;;;;;;;10.85;4.80;;;;;;;8.15;100.00;101526.69;5059358;28;20035;-73
2022/11/29 03:30:36;;;;;;;8.73;4.40;;;;;;;8.11;100.00;101527.03;5058148;28;20036;-73
2022/11/29 03:33:11;;;;;;;12.65;5.72;;;;;;;8.08;100.00;101512.34;5058548;28;20143;-73
2022/11/29 03:35:40;;;;;;;7.80;2.70;;;;;;;8.21;100.00;101535.91;5059042;28;20090;-74
2022/11/29 03:38:24;;;;;;;11.13;5.18;;;;;;;8.19;100.00;101530.75;5059259;28;20036;-74
2022/11/29 03:41:08;;;;;;;10.23;4.75;;;;;;;8.24;100.00;101533.03;5057782;28;20075;-73
2022/11/29 03:43:56;;;;;;;16.95;5.53;;;;;;;8.26;100.00;101535.56;5056249;28;20032;-74
2022/11/29 03:46:41;;;;;;;13.98;5.35;;;;;;;8.24;100.00;101533.03;5075371;28;20028;-74
2022/11/29 03:49:14;;;;;;;7.50;4.88;;;;;;;8.25;100.00;101539.94;5059235;28;20028;-74
2022/11/29 03:51:59;;;;;;;7.50;5.30;;;;;;;8.26;100.00;101540.81;5058841;28;20052;-74
2022/11/29 03:54:33;;;;;;;7.88;4.85;;;;;;;8.28;100.00;101536.28;5057790;28;20028;-74
2022/11/29 03:56:59;;;;;;;16.45;4.90;;;;;;;8.16;100.00;101525.72;5058364;28;20021;-74
2022/11/29 03:59:46;;;;;;;12.88;5.32;;;;;;;7.97;100.00;101499.16;5055909;28;20039;-75
2022/11/29 04:02:38;;;;;;;6.85;4.47;;;;;;;8.20;100.00;101542.94;5055682;28;20029;-75
2022/11/29 04:05:15;;;;;;;8.63;3.97;;;;;;;8.23;100.00;101547.97;5056698;28;20149;-74
2022/11/29 04:07:40;;;;;;;4.97;2.63;;;;;;;8.23;100.00;101550.63;5058890;28;20149;-75
2022/11/29 04:10:17;;;;;;;9.25;4.32;;;;;;;8.21;100.00;101549.06;5058239;28;20137;-73
2022/11/29 04:13:02;;;;;;;6.68;4.15;;;;;;;8.19;100.00;101546.53;5055860;28;20036;-74
2022/11/29 04:15:47;;;;;;;11.73;5.65;;;;;;;8.18;100.00;101544.03;5055177;28;20029;-74
2022/11/29 04:18:30;;;;;;;12.32;4.45;;;;;;;8.18;100.00;101552.75;5056391;28;20059;-74
2022/11/29 04:21:20;;;;;;;6.63;4.75;;;;;;;8.12;100.00;101529.56;5057213;28;20059;-73
2022/11/29 04:24:12;;;;;;;6.28;4.68;;;;;;;8.19;100.00;101541.28;5055350;28;20058;-74
2022/11/29 04:27:11;;;;;;;8.38;3.55;;;;;;;8.17;100.00;101537.94;5058335;28;20032;-73
2022/11/29 04:29:42;;;;;;;4.35;3.55;;;;;;;8.18;100.00;101544.03;5056292;28;20032;-75
2022/11/29 04:32:26;;;;;;;7.32;3.65;;;;;;;8.17;100.00;101543.19;5056693;28;20120;-74
2022/11/29 04:35:04;;;;;;;6.55;3.40;;;;;;;8.19;100.00;101546.53;5057352;28;20028;-74
2022/11/29 04:37:53;;;;;;;6.95;3.65;;;;;;;8.19;100.00;101543.91;5057793;28;20048;-74
2022/11/29 04:40:35;;;;;;;6.55;3.75;;;;;;;8.20;100.00;101547.38;5057570;28;20029;-74
2022/11/29 04:43:15;;;;;;;9.88;4.60;;;;;;;8.22;100.00;101553.34;5057959;28;20102;-73
2022/11/29 04:46:23;;;;;;;4.23;3.63;;;;;;;8.16;100.00;101548.56;5057158;28;20046;-75
2022/11/29 04:49:04;;;;;;;9.90;3.45;;;;;;;8.02;100.00;101544.34;5057680;28;20033;-74
2022/11/29 04:51:46;;;;;;;6.03;3.65;;;;;;;7.96;100.00;101542.19;5058494;28;20036;-76
2022/11/29 04:54:22;;;;;;;;;;;;;;;8.06;100.00;101563.34;5057055;28;20551;-75
2022/11/29 04:56:56;;;;;;;8.57;3.97;;;;;;;7.92;100.00;101567.84;5057084;28;19967;-74
2022/11/29 04:59:31;;;;;;;6.60;4.10;;;;;;;7.80;100.00;101572.25;5056335;28;20028;-74
2022/11/29 05:02:29;;;;;;;10.00;4.45;;;;;;;7.72;100.00;101561.47;5067874;28;20039;-74
2022/11/29 05:05:26;;;;;;;11.80;3.40;;;;;;;7.72;100.00;101577.22;5060577;28;20028;-74
2022/11/29 05:08:28;;;;;;;15.95;4.65;;;;;;;7.70;100.00;101580.94;5068302;28;20676;-74
2022/11/29 05:11:34;;;;;;;6.68;3.88;;;;;;;7.67;100.00;101587.25;5061562;28;20104;-74
2022/11/29 05:14:35;;;;;;;6.30;3.78;;;;;;;7.59;100.00;101586.97;5059404;28;20040;-74
2022/11/29 05:17:21;;;;;;;11.32;4.30;;;;;;;7.58;100.00;101601.06;5059582;28;20090;-74
2022/11/29 05:19:57;;;;;;;12.10;4.53;;;;;;;7.41;100.00;101592.59;5061014;28;20077;-73
2022/11/29 05:22:38;;;;;;;10.32;4.15;;;;;;;7.37;100.00;101595.56;5059244;28;20032;-74
2022/11/29 05:25:44;;;;;;;11.68;4.65;;;;;;;7.38;100.00;101607.75;5060681;28;20060;-75
2022/11/29 05:28:29;;;;;;;8.93;4.43;;;;;;;7.32;100.00;101608.22;5076320;28;20029;-73
2022/11/29 05:31:22;;;;;;;14.50;5.13;;;;;;;7.31;100.00;101612.59;5060161;28;20060;-74
2022/11/29 05:34:19;;;;;;;4.53;3.85;;;;;;;7.21;100.00;101606.34;5060440;28;20029;-74
2022/11/29 05:36:56;;;;;;;9.50;4.57;;;;;;;7.08;100.00;101616.03;5053167;28;20043;-73
2022/11/29 05:39:33;;;;;;;5.20;3.90;;;;;;;7.12;100.00;101626.22;5061346;28;20032;-73
2022/11/29 05:42:08;;;;;;;7.03;3.97;;;;;;;7.13;100.00;101625.25;5059022;28;20174;-75
2022/11/29 05:45:01;;;;;;;9.20;5.18;;;;;;;7.15;100.00;101630.41;5057379;28;20029;-74
2022/11/29 05:47:40;;;;;;;4.68;3.40;;;;;;;7.05;100.00;101616.25;5057368;28;20036;-74
2022/11/29 05:50:21;;;;;;;8.60;2.58;;;;;;;7.15;100.00;101640.91;5057865;28;20119;-74
2022/11/29 05:52:55;;;;;;;13.65;5.22;;;;;;;7.16;100.00;101635.56;5058346;28;20476;-74
2022/11/29 05:55:48;;;;;;;14.55;5.70;;;;;;;7.09;100.00;101628.19;5063745;28;20028;-77
2022/11/29 05:58:26;;;;;;;7.35;5.28;;;;;;;7.15;100.00;101641.72;5058046;28;20491;-75
2022/11/29 06:01:25;;;;;;;9.95;4.25;;;;;;;7.10;100.00;101643.00;5064443;28;20044;-74
2022/11/29 06:04:12;;;;;;;11.27;4.93;;;;;;;7.22;100.00;101650.00;5057191;28;20028;-76
2022/11/29 06:07:13;;;;;;;6.13;4.68;;;;;;;7.21;100.00;101654.44;5057208;28;20072;-73
2022/11/29 06:10:04;;;;;;;6.57;3.50;;;;;;;7.26;100.00;101651.47;5038559;28;20071;-74
2022/11/29 06:12:34;;;;;;;8.20;5.47;;;;;;;7.26;100.00;101646.22;5055049;28;20853;-74
2022/11/29 06:15:48;;;;;;;10.07;4.47;;;;;;;7.29;100.00;101651.25;5055911;28;20060;-74
2022/11/29 06:18:32;;;;;;;4.30;3.65;;;;;;;7.17;100.00;101629.34;5015474;28;20065;-73
2022/11/29 06:21:13;;;;;;;6.55;4.82;;;;;;;7.14;100.00;101653.19;5017162;28;20037;-76
2022/11/29 06:24:21;;;;;;;8.98;4.70;;;;;;;7.20;100.00;101659.78;5016869;28;20029;-74
2022/11/29 06:26:59;;;;;;;4.13;3.72;;;;;;;7.18;100.00;101646.75;4988091;28;20041;-76
2022/11/29 06:29:32;;;;;;;9.20;6.22;;;;;;;7.21;100.00;101654.44;4998609;28;20029;-76
2022/11/29 06:32:07;;;;;;;6.22;3.35;;;;;;;7.22;100.00;101656.09;5000458;28;20033;-82
2022/11/29 06:34:51;;;;;;;7.60;4.30;;;;;;;7.17;100.00;101660.84;5019389;28;20029;-77
2022/11/29 06:37:28;;;;;;;8.30;4.70;;;;;;;7.11;100.00;101658.66;5018389;28;20517;-77
2022/11/29 06:39:54;;;;;;;6.28;4.07;;;;;;;7.10;100.00;101656.13;5016735;28;20048;-76
2022/11/29 06:42:19;;;;;;;12.07;4.43;;;;;;;7.02;100.00;101645.34;4998956;28;20049;-78
2022/11/29 06:44:45;;;;;;;9.63;3.97;;;;;;;7.00;100.00;101656.75;4989373;28;20033;-76
2022/11/29 06:47:19;;;;;;;9.45;3.83;;;;;;;7.05;100.00;101666.13;5014517;28;20038;-76
2022/11/29 06:49:54;;;;;;;5.57;4.38;;;;;;;7.07;100.00;101661.59;5015618;28;20444;-77
2022/11/29 06:52:43;;;;;;;10.15;4.38;;;;;;;7.08;100.00;101663.28;5037795;28;20441;-76
2022/11/29 06:55:18;;;;;;;6.43;4.50;;;;;;;7.22;100.00;101677.09;5054376;28;20035;-76
2022/11/29 06:57:49;;;;;;;7.93;3.83;;;;;;;7.17;100.00;101678.38;5053342;28;20025;-76
2022/11/29 07:00:19;;;;;;;6.40;4.22;;;;;;;7.08;100.00;101665.91;5056339;28;20526;-75
2022/11/29 07:03:22;;;;;;;3.17;2.70;;;;;;;7.22;100.00;101682.34;5056093;28;20082;-76
2022/11/29 07:05:48;;;;;;;6.07;3.65;;;;;;;7.13;100.00;101667.25;5057778;28;20031;-75
2022/11/29 07:08:21;;;;;;;5.80;3.80;;;;;;;7.30;100.00;101689.72;5023694;28;20407;-76
2022/11/29 07:10:49;;;;;;;5.47;4.03;;;;;;;7.37;100.00;101690.13;5056985;28;20716;-76
2022/11/29 07:13:17;;;;;;;3.28;2.75;;;;;;;7.31;100.00;101670.38;5063172;28;20043;-75
2022/11/29 07:16:00;;;;;;;10.13;3.15;;;;;;;7.49;100.00;101688.38;5054780;28;20388;-76
2022/11/29 07:18:44;;;;;;;7.75;3.38;;;;;;;7.53;100.00;101693.31;5055225;28;20078;-75
2022/11/29 07:21:47;;;;;;;9.23;3.67;;;;;;;7.56;100.00;101693.13;5057135;28;20039;-76
2022/11/29 07:25:05;;;;;;;11.27;3.40;;;;;;;7.29;100.00;101660.91;5063830;28;20107;-76
2022/11/29 07:28:01;;;;;;;3.25;2.83;;;;;;;7.51;100.00;101692.63;5044327;28;20136;-76
2022/11/29 07:30:33;;;;;;;3.95;3.05;;;;;;;7.29;100.00;101677.50;5057472;28;20616;-75
2022/11/29 07:33:20;;;;;;;7.35;3.70;;;;;;;7.31;100.00;101690.53;5054838;28;20024;-75
2022/11/29 07:36:04;;;;;;;8.95;3.25;;;;;;;7.41;100.00;101697.66;5055689;28;20594;-75
2022/11/29 07:38:48;;;;;;;7.40;4.20;;;;;;;7.45;100.00;101697.44;5064215;28;20048;-75
2022/11/29 07:41:48;;;;;;;13.80;3.53;;;;;;;7.40;100.00;101698.63;5056252;28;20143;-75
2022/11/29 07:44:22;;;;;;;5.28;3.50;;;;;;;7.40;100.00;101703.88;5055251;28;20085;-75
2022/11/29 07:46:47;;;;;;;6.32;3.45;;;;;;;7.47;100.00;101701.66;5062584;28;20719;-76
2022/11/29 07:49:13;;;;;;;8.40;3.42;;;;;;;7.49;100.00;101709.41;5056150;28;20082;-76
2022/11/29 07:51:38;;;;;;;7.70;2.72;;;;;;;7.41;100.00;101688.94;5055865;28;20109;-76
2022/11/29 07:54:04;;;;;;;7.28;3.13;;;;;;;7.53;100.00;101700.34;5054469;28;20032;-75
2022/11/29 07:56:30;;;;;;;3.95;3.08;;;;;;;7.53;100.00;101710.88;5047033;28;20025;-77
2022/11/29 07:58:55;;;;;;;10.73;3.25;;;;;;;7.50;100.00;101704.06;5038125;28;20458;-75
2022/11/29 08:01:20;;;;;;;8.80;3.92;;;;;;;7.45;100.00;101710.56;5055219;28;20036;-75
2022/11/29 08:03:46;;;;;;;9.18;3.80;;;;;;;7.46;100.00;101720.97;5054813;28;20391;-75
2022/11/29 08:06:11;;;;;;;2.97;2.67;;;;;;;7.39;100.00;101717.94;5054991;28;20163;-75
2022/11/29 08:08:36;;;;;;;6.00;4.30;;;;;;;7.21;100.00;101708.75;5039086;28;20024;-76
2022/11/29 08:11:10;;;;;;;4.93;3.22;;;;;;;7.35;100.00;101724.34;5054726;28;20024;-74
2022/11/29 08:13:36;;;;;;;4.68;3.42;;;;;;;7.43;100.00;101736.13;5055742;28;20072;-75
2022/11/29 08:16:01;;;;;;;6.32;2.65;;;;;;;7.42;100.00;101735.25;5055990;28;20127;-75
2022/11/29 08:18:26;;;;;;;5.82;3.05;;;;;;;7.55;100.00;101741.31;5054849;28;20073;-75
2022/11/29 08:20:52;;;;;;;5.32;3.20;;;;;;;7.50;100.00;101725.06;5040122;28;20624;-76
2022/11/29 08:23:17;;;;;;;10.10;3.60;;;;;;;7.59;100.00;101732.28;5038972;28;20051;-75
2022/11/29 08:25:44;;;;;;;4.38;3.33;;;;;;;7.68;100.00;101750.97;5056189;28;20028;-76
2022/11/29 08:28:10;;;;;;;4.07;3.13;;;;;;;7.78;100.00;101750.22;5054899;28;20073;-76
2022/11/29 08:30:36;;;;;;;3.40;3.00;;;;;;;7.87;100.00;101745.25;5056023;28;20575;-75
2022/11/29 08:33:01;;;;;;;3.47;2.40;;;;;;;7.96;100.00;101755.09;5039725;28;20041;-76
2022/11/29 08:35:26;;;;;;;3.70;2.80;;;;;;;7.99;100.00;101747.84;5059572;28;20028;-75
2022/11/29 08:37:53;;;;;;;6.85;3.47;;;;;;;8.06;100.00;101748.25;5059587;28;20033;-74
2022/11/29 08:40:18;;;;;;;4.82;3.88;;;;;;;8.14;100.00;101759.00;5059055;28;20036;-76
2022/11/29 08:42:43;;;;;;;5.10;3.75;;;;;;;8.22;100.00;101761.94;5050211;28;20028;-74
2022/11/29 08:45:10;;;;;;;9.82;4.97;;;;;;;8.26;100.00;101761.72;5058430;28;20068;-76
2022/11/29 08:47:37;;;;;;;6.28;3.05;;;;;;;8.24;100.00;101743.41;5057959;28;20115;-75
2022/11/29 08:50:08;;;;;;;4.78;2.42;;;;;;;8.38;100.00;101760.81;5058801;28;20094;-76
2022/11/29 08:55:22;;;;;;;8.32;4.72;;;;;;;8.50;100.00;101753.84;5058445;28;20090;-75
2022/11/29 08:57:50;;;;;;;5.00;2.85;;;;;;;8.54;100.00;101750.03;5058263;28;20028;-75
2022/11/29 09:00:16;;;;;;;4.95;3.22;;;;;;;8.59;100.00;101756.63;5060616;28;20020;-75
2022/11/29 09:02:42;;;;;;;7.60;2.40;;;;;;;8.65;100.00;101761.41;5060245;28;20021;-75
2022/11/29 09:05:09;;;;;;;8.20;3.42;;;;;;;8.70;100.00;101755.81;5060639;28;20635;-76
2022/11/29 09:07:35;;;;;;;4.35;2.60;;;;;;;8.80;100.00;101748.91;5059075;28;20434;-76
2022/11/29 09:10:06;;;;;;;3.65;3.17;;;;;;;8.90;100.00;101767.47;5043118;28;20063;-76
2022/11/29 09:12:32;;;;;;;3.72;2.20;;;;;;;8.87;100.00;101746.63;5057734;28;20040;-75
2022/11/29 09:14:58;;;;;;;6.20;3.72;;;;;;;8.97;100.00;101763.44;5059621;28;20049;-76
2022/11/29 09:17:23;;;;;;;7.43;3.90;;;;;;;8.93;100.00;101751.44;5059713;28;20107;-76
2022/11/29 09:19:49;;;;;;;10.68;2.60;;;;;;;9.10;100.00;101767.72;5042123;28;20043;-75
2022/11/29 09:22:14;;;;;;;3.53;2.40;;;;;;;9.01;100.00;101759.56;5059275;28;20021;-76
2022/11/29 09:24:39;;;;;;;11.07;3.90;;;;;;;9.15;100.00;101771.69;5042454;28;20079;-74
2022/11/29 09:27:05;;;;;;;5.50;2.58;;;;;;;9.14;100.00;101766.53;5027059;28;20041;-75
2022/11/29 09:29:31;;;;;;;10.00;3.60;;;;;;;9.19;100.00;101767.00;5057039;28;20037;-75
2022/11/29 09:31:56;;;;;;;4.30;3.05;;;;;;;9.30;100.00;101774.94;5058583;28;20040;-75
2022/11/29 09:34:21;;;;;;;9.60;3.38;;;;;;;9.35;100.00;101788.59;5060166;28;20021;-75
2022/11/29 09:36:47;;;;;;;3.25;2.58;;;;;;;9.42;100.00;101784.50;5058628;28;20047;-76
2022/11/29 09:39:12;;;;;;;4.43;2.90;;;;;;;9.48;100.00;101788.47;5057677;28;20100;-76
2022/11/29 09:42:02;;;;;;;5.18;3.47;;;;;;;9.52;100.00;101791.72;5059110;28;20031;-75
2022/11/29 09:44:42;;;;;;;3.25;2.70;;;;;;;9.54;100.00;101801.19;5058385;28;20025;-75
2022/11/29 09:47:17;;;;;;;5.43;3.20;;;;;;;9.71;100.00;101802.47;5057495;28;20032;-76
2022/11/29 09:49:59;;;;;;;7.95;5.35;;;;;;;9.63;100.00;101771.47;5059490;28;20099;-75
2022/11/29 09:52:40;;;;;;;6.32;3.72;;;;;;;9.88;100.00;101801.97;5058833;28;20399;-75
2022/11/29 09:55:24;;;;;;;8.23;4.97;;;;;;;9.92;100.00;101804.38;5058757;28;20024;-76
2022/11/29 09:57:52;;;;;;;12.70;4.25;;;;;;;9.94;100.00;101808.56;5056751;28;20040;-75
2022/11/29 10:00:21;;;;;;;6.25;3.63;;;;;;;9.84;100.00;101797.94;5058657;28;20075;-76
2022/11/29 10:02:57;;;;;;;6.05;3.80;;;;;;;9.91;100.00;101806.19;5056420;28;20069;-75
2022/11/29 10:05:28;;;;;;;9.45;4.35;;;;;;;9.95;100.00;101798.84;5059114;28;20020;-75
2022/11/29 10:08:01;;;;;;;;;;;;;;;10.09;100.00;101809.16;5074574;28;20714;-76
2022/11/29 10:10:36;;;;;;;6.20;3.95;;;;;;;10.06;100.00;101804.97;5057869;28;19951;-75
2022/11/29 10:13:28;;;;;;;8.60;4.60;;;;;;;9.91;100.00;101797.41;5057240;28;20048;-76
2022/11/29 10:16:01;;;;;;;6.75;3.63;;;;;;;9.99;100.00;101813.47;5058722;28;20024;-76
2022/11/29 10:19:05;;;;;;;12.23;5.28;;;;;;;9.88;100.00;101801.16;5058595;28;20029;-75
2022/11/29 10:21:37;;;;;;;9.85;5.03;;;;;;;9.85;100.00;101815.41;5057475;28;20574;-75
2022/11/29 10:24:13;;;;;;;7.82;3.40;;;;;;;9.76;100.00;101792.44;5057808;28;20040;-75
2022/11/29 10:26:40;;;;;;;8.00;4.57;;;;;;;9.72;100.00;101796.25;5057613;28;20434;-75
2022/11/29 10:29:05;;;;;;;7.57;3.78;;;;;;;9.76;100.00;101802.13;5055793;28;20082;-76
2022/11/29 10:31:35;;;;;;;14.07;4.43;;;;;;;9.75;100.00;101798.63;5056490;28;20040;-77
2022/11/29 10:34:11;;;;;;;9.93;4.82;;;;;;;9.72;100.00;101800.69;5058345;28;20163;-75
2022/11/29 10:36:43;;;;;;;8.40;3.15;;;;;;;9.68;100.00;101787.75;5058839;28;20025;-76
2022/11/29 10:39:24;;;;;;;9.00;4.82;;;;;;;9.56;100.00;101791.38;5056404;28;20471;-76
2022/11/29 10:41:54;;;;;;;11.77;5.15;;;;;;;9.70;100.00;101807.88;5057500;28;20031;-76
2022/11/29 10:44:20;;;;;;;10.60;4.45;;;;;;;9.66;100.00;101804.66;5057884;28;20025;-76
2022/11/29 10:46:45;;;;;;;9.32;4.03;;;;;;;9.58;100.00;101799.13;5056752;28;20032;-76
2022/11/29 10:49:16;;;;;;;8.30;5.20;;;;;;;9.71;100.00;101815.66;5040789;28;20450;-74
2022/11/29 10:51:42;;;;;;;8.65;4.38;;;;;;;9.67;100.00;101806.34;5055113;28;20029;-76
2022/11/29 10:54:40;;;;;;;10.52;4.78;;;;;;;9.68;100.00;101805.38;5057202;28;21743;-76
2022/11/29 10:57:14;;;;;;;8.05;3.60;;;;;;;9.73;100.00;101816.38;5053485;28;20080;-76
2022/11/29 10:59:39;;;;;;;11.43;3.30;;;;;;;9.76;100.00;101802.97;5056619;28;20475;-77
2022/11/29 11:02:17;;;;;;;5.88;3.13;;;;;;;9.81;100.00;101818.41;5057823;28;20116;-73
2022/11/29 11:04:45;;;;;;;4.93;3.72;;;;;;;9.83;100.00;101819.97;5056416;28;20107;-76
2022/11/29 11:07:22;;;;;;;7.78;4.22;;;;;;;9.80;100.00;101825.50;5055059;28;20037;-76
2022/11/29 11:09:50;;;;;;;4.38;3.22;;;;;;;9.86;100.00;101819.75;5055655;28;20028;-75
2022/11/29 11:12:19;;;;;;;6.63;3.65;;;;;;;9.84;100.00;101816.41;5056841;28;20516;-76
2022/11/29 11:14:46;;;;;;;11.65;4.70;;;;;;;9.72;100.00;101796.25;5064100;28;20061;-76
2022/11/29 11:17:24;;;;;;;6.03;3.20;;;;;;;9.90;100.00;101825.59;5058242;28;20029;-76
2022/11/29 11:20:07;;;;;;;9.60;4.43;;;;;;;9.82;100.00;101817.44;5056285;28;20150;-76
2022/11/29 11:22:34;;;;;;;7.38;4.35;;;;;;;9.83;100.00;101819.13;5057262;28;20052;-76
2022/11/29 11:25:02;;;;;;;7.00;4.10;;;;;;;9.86;100.00;101824.16;5056433;28;20039;-75
2022/11/29 11:27:34;;;;;;;5.75;3.78;;;;;;;9.80;100.00;101812.31;5055509;28;20035;-76
2022/11/29 11:30:01;;;;;;;5.55;3.17;;;;;;;9.73;100.00;101808.47;5057095;28;20033;-75
2022/11/29 11:32:27;;;;;;;7.78;3.58;;;;;;;9.73;100.00;101826.09;5057608;28;20044;-76
2022/11/29 11:34:58;;;;;;;4.95;2.45;;;;;;;9.77;100.00;101831.00;5056099;28;20052;-75
2022/11/29 11:37:29;;;;;;;4.97;3.10;;;;;;;9.73;100.00;101840.09;5056159;28;20492;-75
2022/11/29 11:39:59;;;;;;;4.68;3.55;;;;;;;9.62;100.00;101834.84;5056448;28;20021;-74
2022/11/29 11:42:36;;;;;;;3.15;2.83;;;;;;;9.53;100.00;101832.91;5057282;28;20139;-75
2022/11/29 11:45:21;;;;;;;6.40;3.65;;;;;;;9.63;100.00;101844.44;5056684;28;20346;-75
2022/11/29 11:47:51;;;;;;;7.20;3.88;;;;;;;9.59;100.00;101849.09;5056759;28;20038;-75
2022/11/29 11:50:27;;;;;;;10.18;3.60;;;;;;;9.57;100.00;101845.72;5057057;28;20039;-75
2022/11/29 11:52:58;;;;;;;5.55;3.28;;;;;;;9.46;100.00;101830.75;5055910;28;20032;-74
2022/11/29 11:55:39;;;;;;;7.10;3.33;;;;;;;9.45;100.00;101844.91;5054279;28;20029;-76
2022/11/29 11:58:11;;;;;;;7.70;3.72;;;;;;;9.46;100.00;101851.84;5056498;28;20024;-75
2022/11/29 12:00:47;;;;;;;10.07;3.33;;;;;;;9.43;100.00;101853.88;5054168;28;20036;-75
2022/11/29 12:04:03;;;;;;;7.40;3.97;;;;;;;9.42;100.00;101855.66;5056483;28;20029;-77
2022/11/29 12:06:58;;;;;;;7.20;4.32;;;;;;;9.37;100.00;101860.44;5013383;28;20038;-75
2022/11/29 12:09:31;;;;;;;4.85;3.28;;;;;;;9.23;100.00;101858.00;4996428;28;20141;-76